sensor_id;sensor_type;location;lat;lon;timestamp;P1;durP1;ratioP1;P2;durP2;ratioP2
32876;SDS011;19226;51.600;8.034;2023-04-09T00:01:37;48.65;;;22.45;;
32876;SDS011;19226;51.600;8.034;2023-04-09T00:04:22;46.03;;;22.65;;
32876;SDS011;19226;51.600;8.034;2023-04-09T00:07:06;40.03;;;20.52;;
32876;SDS011;19226;51.600;8.034;2023-04-09T00:09:51;36.88;;;18.55;;
32876;SDS011;19226;51.600;8.034;2023-04-09T00:12:35;40.00;;;19.67;;
32876;SDS011;19226;51.600;8.034;2023-04-09T00:15:20;31.95;;;17.50;;
32876;SDS011;19226;51.600;8.034;2023-04-09T00:18:06;33.75;;;17.13;;
32876;SDS011;19226;51.600;8.034;2023-04-09T00:20:50;36.70;;;19.30;;
32876;SDS011;19226;51.600;8.034;2023-04-09T00:23:35;41.55;;;19.35;;
32876;SDS011;19226;51.600;8.034;2023-04-09T00:26:19;41.15;;;20.30;;
32876;SDS011;19226;51.600;8.034;2023-04-09T00:29:05;40.65;;;20.02;;
32876;SDS011;19226;51.600;8.034;2023-04-09T00:31:49;37.72;;;19.60;;
32876;SDS011;19226;51.600;8.034;2023-04-09T00:34:34;35.97;;;18.13;;
32876;SDS011;19226;51.600;8.034;2023-04-09T00:37:19;35.97;;;18.33;;
32876;SDS011;19226;51.600;8.034;2023-04-09T00:40:04;36.38;;;18.70;;
32876;SDS011;19226;51.600;8.034;2023-04-09T00:42:49;36.88;;;18.65;;
32876;SDS011;19226;51.600;8.034;2023-04-09T00:45:34;34.97;;;18.90;;
32876;SDS011;19226;51.600;8.034;2023-04-09T00:48:19;38.60;;;19.02;;
32876;SDS011;19226;51.600;8.034;2023-04-09T00:51:04;38.50;;;19.73;;
32876;SDS011;19226;51.600;8.034;2023-04-09T00:53:49;43.53;;;20.10;;
32876;SDS011;19226;51.600;8.034;2023-04-09T00:56:33;41.13;;;19.95;;
32876;SDS011;19226;51.600;8.034;2023-04-09T00:59:19;48.25;;;22.35;;
32876;SDS011;19226;51.600;8.034;2023-04-09T01:02:05;44.75;;;21.63;;
32876;SDS011;19226;51.600;8.034;2023-04-09T01:04:50;37.17;;;16.05;;
32876;SDS011;19226;51.600;8.034;2023-04-09T01:14:12;34.88;;;18.25;;
32876;SDS011;19226;51.600;8.034;2023-04-09T01:17:14;36.58;;;18.58;;
32876;SDS011;19226;51.600;8.034;2023-04-09T01:23:06;42.28;;;20.85;;
32876;SDS011;19226;51.600;8.034;2023-04-09T01:29:09;53.17;;;23.63;;
32876;SDS011;19226;51.600;8.034;2023-04-09T01:31:54;47.80;;;24.42;;
32876;SDS011;19226;51.600;8.034;2023-04-09T01:34:39;48.92;;;24.15;;
32876;SDS011;19226;51.600;8.034;2023-04-09T01:37:25;51.70;;;25.42;;
32876;SDS011;19226;51.600;8.034;2023-04-09T01:40:10;45.88;;;23.95;;
32876;SDS011;19226;51.600;8.034;2023-04-09T01:42:55;59.42;;;27.88;;
32876;SDS011;19226;51.600;8.034;2023-04-09T01:45:41;58.33;;;25.98;;
32876;SDS011;19226;51.600;8.034;2023-04-09T01:48:28;55.38;;;27.75;;
32876;SDS011;19226;51.600;8.034;2023-04-09T01:51:14;49.88;;;25.35;;
32876;SDS011;19226;51.600;8.034;2023-04-09T01:53:59;58.03;;;26.42;;
32876;SDS011;19226;51.600;8.034;2023-04-09T01:56:45;58.00;;;26.40;;
32876;SDS011;19226;51.600;8.034;2023-04-09T01:59:31;55.22;;;26.08;;
32876;SDS011;19226;51.600;8.034;2023-04-09T02:02:16;55.58;;;25.52;;
32876;SDS011;19226;51.600;8.034;2023-04-09T02:05:06;49.20;;;23.23;;
32876;SDS011;19226;51.600;8.034;2023-04-09T02:07:55;45.72;;;23.80;;
32876;SDS011;19226;51.600;8.034;2023-04-09T02:10:44;56.45;;;26.08;;
32876;SDS011;19226;51.600;8.034;2023-04-09T02:13:36;50.70;;;23.98;;
32876;SDS011;19226;51.600;8.034;2023-04-09T02:16:24;48.92;;;24.02;;
32876;SDS011;19226;51.600;8.034;2023-04-09T02:19:10;43.90;;;22.05;;
32876;SDS011;19226;51.600;8.034;2023-04-09T02:21:54;45.30;;;22.65;;
32876;SDS011;19226;51.600;8.034;2023-04-09T02:24:39;43.95;;;22.63;;
32876;SDS011;19226;51.600;8.034;2023-04-09T02:27:24;40.15;;;22.30;;
32876;SDS011;19226;51.600;8.034;2023-04-09T02:30:09;40.83;;;19.27;;
32876;SDS011;19226;51.600;8.034;2023-04-09T02:32:53;35.88;;;19.73;;
32876;SDS011;19226;51.600;8.034;2023-04-09T02:35:40;39.25;;;20.67;;
32876;SDS011;19226;51.600;8.034;2023-04-09T02:38:25;41.95;;;20.55;;
32876;SDS011;19226;51.600;8.034;2023-04-09T02:41:10;37.53;;;19.08;;
32876;SDS011;19226;51.600;8.034;2023-04-09T02:43:54;38.55;;;20.42;;
32876;SDS011;19226;51.600;8.034;2023-04-09T02:46:42;42.40;;;20.38;;
32876;SDS011;19226;51.600;8.034;2023-04-09T02:49:27;45.70;;;21.10;;
32876;SDS011;19226;51.600;8.034;2023-04-09T02:52:12;42.42;;;19.55;;
32876;SDS011;19226;51.600;8.034;2023-04-09T02:54:56;38.65;;;19.85;;
32876;SDS011;19226;51.600;8.034;2023-04-09T02:57:41;43.50;;;19.30;;
32876;SDS011;19226;51.600;8.034;2023-04-09T03:00:26;37.80;;;19.23;;
32876;SDS011;19226;51.600;8.034;2023-04-09T03:03:12;35.80;;;19.42;;
32876;SDS011;19226;51.600;8.034;2023-04-09T03:05:56;40.97;;;19.63;;
32876;SDS011;19226;51.600;8.034;2023-04-09T03:08:41;41.70;;;18.77;;
32876;SDS011;19226;51.600;8.034;2023-04-09T03:11:25;43.90;;;19.00;;
32876;SDS011;19226;51.600;8.034;2023-04-09T03:14:10;39.65;;;18.40;;
32876;SDS011;19226;51.600;8.034;2023-04-09T03:16:55;32.33;;;16.55;;
32876;SDS011;19226;51.600;8.034;2023-04-09T03:19:39;28.42;;;16.10;;
32876;SDS011;19226;51.600;8.034;2023-04-09T03:22:23;30.50;;;15.82;;
32876;SDS011;19226;51.600;8.034;2023-04-09T03:25:10;31.65;;;15.95;;
32876;SDS011;19226;51.600;8.034;2023-04-09T03:27:54;32.33;;;15.65;;
32876;SDS011;19226;51.600;8.034;2023-04-09T03:30:54;31.08;;;16.08;;
32876;SDS011;19226;51.600;8.034;2023-04-09T03:33:39;29.30;;;14.95;;
32876;SDS011;19226;51.600;8.034;2023-04-09T03:36:25;34.22;;;15.48;;
32876;SDS011;19226;51.600;8.034;2023-04-09T03:39:17;28.27;;;14.85;;
32876;SDS011;19226;51.600;8.034;2023-04-09T03:42:02;34.10;;;15.85;;
32876;SDS011;19226;51.600;8.034;2023-04-09T03:44:57;30.55;;;15.95;;
32876;SDS011;19226;51.600;8.034;2023-04-09T03:47:49;26.52;;;14.32;;
32876;SDS011;19226;51.600;8.034;2023-04-09T03:50:38;24.75;;;14.32;;
32876;SDS011;19226;51.600;8.034;2023-04-09T03:53:25;32.90;;;15.93;;
32876;SDS011;19226;51.600;8.034;2023-04-09T03:56:17;33.88;;;16.42;;
32876;SDS011;19226;51.600;8.034;2023-04-09T03:59:02;33.80;;;16.80;;
32876;SDS011;19226;51.600;8.034;2023-04-09T04:01:54;36.78;;;18.23;;
32876;SDS011;19226;51.600;8.034;2023-04-09T04:04:38;35.65;;;17.75;;
32876;SDS011;19226;51.600;8.034;2023-04-09T04:07:26;34.75;;;18.17;;
32876;SDS011;19226;51.600;8.034;2023-04-09T04:10:16;31.40;;;16.15;;
32876;SDS011;19226;51.600;8.034;2023-04-09T04:13:04;34.63;;;17.13;;
32876;SDS011;19226;51.600;8.034;2023-04-09T04:16:05;37.95;;;19.42;;
32876;SDS011;19226;51.600;8.034;2023-04-09T04:21:35;33.88;;;17.13;;
32876;SDS011;19226;51.600;8.034;2023-04-09T04:24:20;40.28;;;17.52;;
32876;SDS011;19226;51.600;8.034;2023-04-09T04:27:05;38.10;;;18.73;;
32876;SDS011;19226;51.600;8.034;2023-04-09T04:29:52;39.95;;;20.05;;
32876;SDS011;19226;51.600;8.034;2023-04-09T04:32:47;42.80;;;21.00;;
32876;SDS011;19226;51.600;8.034;2023-04-09T04:35:34;41.50;;;18.67;;
32876;SDS011;19226;51.600;8.034;2023-04-09T04:38:21;36.08;;;18.73;;
32876;SDS011;19226;51.600;8.034;2023-04-09T04:43:59;30.23;;;16.55;;
32876;SDS011;19226;51.600;8.034;2023-04-09T04:46:44;38.90;;;17.40;;
32876;SDS011;19226;51.600;8.034;2023-04-09T04:49:28;38.85;;;17.88;;
32876;SDS011;19226;51.600;8.034;2023-04-09T04:52:14;36.22;;;17.60;;
32876;SDS011;19226;51.600;8.034;2023-04-09T04:55:03;39.65;;;18.60;;
32876;SDS011;19226;51.600;8.034;2023-04-09T04:57:50;46.20;;;19.25;;
32876;SDS011;19226;51.600;8.034;2023-04-09T05:00:37;37.55;;;18.55;;
32876;SDS011;19226;51.600;8.034;2023-04-09T05:03:22;36.63;;;17.15;;
32876;SDS011;19226;51.600;8.034;2023-04-09T05:06:29;33.45;;;16.67;;
32876;SDS011;19226;51.600;8.034;2023-04-09T05:09:16;37.58;;;17.92;;
32876;SDS011;19226;51.600;8.034;2023-04-09T05:12:12;31.85;;;17.27;;
32876;SDS011;19226;51.600;8.034;2023-04-09T05:14:58;30.58;;;15.88;;
32876;SDS011;19226;51.600;8.034;2023-04-09T05:17:43;29.75;;;15.50;;
32876;SDS011;19226;51.600;8.034;2023-04-09T05:20:29;32.28;;;16.85;;
32876;SDS011;19226;51.600;8.034;2023-04-09T05:23:24;28.30;;;15.10;;
32876;SDS011;19226;51.600;8.034;2023-04-09T05:26:09;32.08;;;15.55;;
32876;SDS011;19226;51.600;8.034;2023-04-09T05:29:04;24.02;;;13.63;;
32876;SDS011;19226;51.600;8.034;2023-04-09T05:31:50;36.15;;;17.52;;
32876;SDS011;19226;51.600;8.034;2023-04-09T05:34:55;40.95;;;20.75;;
32876;SDS011;19226;51.600;8.034;2023-04-09T05:37:40;38.08;;;18.88;;
32876;SDS011;19226;51.600;8.034;2023-04-09T05:40:25;40.88;;;18.75;;
32876;SDS011;19226;51.600;8.034;2023-04-09T05:43:10;37.72;;;19.08;;
32876;SDS011;19226;51.600;8.034;2023-04-09T05:45:58;36.80;;;20.00;;
32876;SDS011;19226;51.600;8.034;2023-04-09T05:48:43;43.95;;;20.33;;
32876;SDS011;19226;51.600;8.034;2023-04-09T05:51:28;47.35;;;21.60;;
32876;SDS011;19226;51.600;8.034;2023-04-09T05:54:14;57.67;;;24.10;;
32876;SDS011;19226;51.600;8.034;2023-04-09T05:56:59;51.25;;;22.88;;
32876;SDS011;19226;51.600;8.034;2023-04-09T05:59:44;45.75;;;22.35;;
32876;SDS011;19226;51.600;8.034;2023-04-09T06:02:28;48.85;;;22.42;;
32876;SDS011;19226;51.600;8.034;2023-04-09T06:05:13;52.33;;;22.88;;
32876;SDS011;19226;51.600;8.034;2023-04-09T06:07:58;50.90;;;23.92;;
32876;SDS011;19226;51.600;8.034;2023-04-09T06:10:42;52.53;;;23.42;;
32876;SDS011;19226;51.600;8.034;2023-04-09T06:13:27;51.72;;;23.65;;
32876;SDS011;19226;51.600;8.034;2023-04-09T06:16:11;55.80;;;24.42;;
32876;SDS011;19226;51.600;8.034;2023-04-09T06:18:56;24.75;;;13.80;;
32876;SDS011;19226;51.600;8.034;2023-04-09T06:21:40;22.98;;;13.90;;
32876;SDS011;19226;51.600;8.034;2023-04-09T06:24:25;29.15;;;15.27;;
32876;SDS011;19226;51.600;8.034;2023-04-09T06:27:09;41.00;;;16.63;;
32876;SDS011;19226;51.600;8.034;2023-04-09T06:29:54;35.80;;;18.67;;
32876;SDS011;19226;51.600;8.034;2023-04-09T06:32:38;41.40;;;20.15;;
32876;SDS011;19226;51.600;8.034;2023-04-09T06:35:23;37.75;;;18.60;;
32876;SDS011;19226;51.600;8.034;2023-04-09T06:38:07;38.50;;;18.92;;
32876;SDS011;19226;51.600;8.034;2023-04-09T06:40:54;38.55;;;18.63;;
32876;SDS011;19226;51.600;8.034;2023-04-09T06:43:39;35.55;;;17.85;;
32876;SDS011;19226;51.600;8.034;2023-04-09T06:46:24;41.13;;;18.42;;
32876;SDS011;19226;51.600;8.034;2023-04-09T06:49:09;40.88;;;20.02;;
32876;SDS011;19226;51.600;8.034;2023-04-09T06:51:53;36.53;;;17.90;;
32876;SDS011;19226;51.600;8.034;2023-04-09T06:54:37;45.97;;;21.15;;
32876;SDS011;19226;51.600;8.034;2023-04-09T06:57:22;47.88;;;23.27;;
32876;SDS011;19226;51.600;8.034;2023-04-09T07:00:07;46.85;;;23.52;;
32876;SDS011;19226;51.600;8.034;2023-04-09T07:02:52;47.90;;;23.58;;
32876;SDS011;19226;51.600;8.034;2023-04-09T07:05:37;50.45;;;24.23;;
32876;SDS011;19226;51.600;8.034;2023-04-09T07:08:22;49.75;;;25.38;;
32876;SDS011;19226;51.600;8.034;2023-04-09T07:11:07;42.83;;;23.25;;
32876;SDS011;19226;51.600;8.034;2023-04-09T07:13:51;49.22;;;23.80;;
32876;SDS011;19226;51.600;8.034;2023-04-09T07:16:36;50.80;;;23.95;;
32876;SDS011;19226;51.600;8.034;2023-04-09T07:19:20;44.58;;;23.30;;
32876;SDS011;19226;51.600;8.034;2023-04-09T07:22:05;47.97;;;22.98;;
32876;SDS011;19226;51.600;8.034;2023-04-09T07:24:50;41.88;;;22.60;;
32876;SDS011;19226;51.600;8.034;2023-04-09T07:27:37;43.53;;;21.05;;
32876;SDS011;19226;51.600;8.034;2023-04-09T07:30:22;41.95;;;20.70;;
32876;SDS011;19226;51.600;8.034;2023-04-09T07:33:07;40.22;;;22.52;;
32876;SDS011;19226;51.600;8.034;2023-04-09T07:35:51;42.42;;;23.35;;
32876;SDS011;19226;51.600;8.034;2023-04-09T07:38:36;37.53;;;20.40;;
32876;SDS011;19226;51.600;8.034;2023-04-09T07:41:20;41.17;;;20.70;;
32876;SDS011;19226;51.600;8.034;2023-04-09T07:44:05;39.60;;;20.17;;
32876;SDS011;19226;51.600;8.034;2023-04-09T07:46:50;37.47;;;20.08;;
32876;SDS011;19226;51.600;8.034;2023-04-09T07:49:37;35.90;;;20.77;;
32876;SDS011;19226;51.600;8.034;2023-04-09T07:52:22;32.50;;;17.60;;
32876;SDS011;19226;51.600;8.034;2023-04-09T07:55:06;34.03;;;17.38;;
32876;SDS011;19226;51.600;8.034;2023-04-09T07:57:50;38.55;;;18.65;;
32876;SDS011;19226;51.600;8.034;2023-04-09T08:00:35;26.88;;;16.73;;
32876;SDS011;19226;51.600;8.034;2023-04-09T08:03:19;35.13;;;19.00;;
32876;SDS011;19226;51.600;8.034;2023-04-09T08:06:05;34.88;;;19.50;;
32876;SDS011;19226;51.600;8.034;2023-04-09T08:08:50;33.50;;;19.08;;
32876;SDS011;19226;51.600;8.034;2023-04-09T08:11:34;37.65;;;20.63;;
32876;SDS011;19226;51.600;8.034;2023-04-09T08:14:19;35.40;;;20.08;;
32876;SDS011;19226;51.600;8.034;2023-04-09T08:17:04;32.40;;;18.73;;
32876;SDS011;19226;51.600;8.034;2023-04-09T08:19:48;32.20;;;18.60;;
32876;SDS011;19226;51.600;8.034;2023-04-09T08:22:33;29.38;;;17.83;;
32876;SDS011;19226;51.600;8.034;2023-04-09T08:25:17;34.03;;;18.95;;
32876;SDS011;19226;51.600;8.034;2023-04-09T08:28:02;31.85;;;19.67;;
32876;SDS011;19226;51.600;8.034;2023-04-09T08:30:47;32.15;;;19.13;;
32876;SDS011;19226;51.600;8.034;2023-04-09T08:33:32;34.58;;;19.98;;
32876;SDS011;19226;51.600;8.034;2023-04-09T08:36:16;30.60;;;18.35;;
32876;SDS011;19226;51.600;8.034;2023-04-09T08:39:01;29.27;;;18.67;;
32876;SDS011;19226;51.600;8.034;2023-04-09T08:41:46;29.65;;;17.65;;
32876;SDS011;19226;51.600;8.034;2023-04-09T08:44:31;29.23;;;17.55;;
32876;SDS011;19226;51.600;8.034;2023-04-09T08:47:16;32.92;;;19.63;;
32876;SDS011;19226;51.600;8.034;2023-04-09T08:50:02;28.27;;;18.00;;
32876;SDS011;19226;51.600;8.034;2023-04-09T08:52:47;30.73;;;18.80;;
32876;SDS011;19226;51.600;8.034;2023-04-09T08:55:32;33.47;;;19.38;;
32876;SDS011;19226;51.600;8.034;2023-04-09T08:58:26;28.15;;;18.42;;
32876;SDS011;19226;51.600;8.034;2023-04-09T09:01:23;28.27;;;17.45;;
32876;SDS011;19226;51.600;8.034;2023-04-09T09:04:12;25.05;;;17.88;;
32876;SDS011;19226;51.600;8.034;2023-04-09T09:07:04;27.42;;;17.70;;
32876;SDS011;19226;51.600;8.034;2023-04-09T09:09:53;27.52;;;17.75;;
32876;SDS011;19226;51.600;8.034;2023-04-09T09:12:40;27.25;;;17.70;;
32876;SDS011;19226;51.600;8.034;2023-04-09T09:15:26;27.33;;;17.45;;
32876;SDS011;19226;51.600;8.034;2023-04-09T09:18:12;23.52;;;15.57;;
32876;SDS011;19226;51.600;8.034;2023-04-09T09:24:17;35.78;;;17.25;;
32876;SDS011;19226;51.600;8.034;2023-04-09T09:27:02;23.85;;;16.05;;
32876;SDS011;19226;51.600;8.034;2023-04-09T09:29:46;23.98;;;15.88;;
32876;SDS011;19226;51.600;8.034;2023-04-09T09:32:31;27.42;;;15.82;;
32876;SDS011;19226;51.600;8.034;2023-04-09T09:35:16;22.20;;;14.57;;
32876;SDS011;19226;51.600;8.034;2023-04-09T09:38:01;26.55;;;14.85;;
32876;SDS011;19226;51.600;8.034;2023-04-09T09:40:49;20.30;;;14.15;;
32876;SDS011;19226;51.600;8.034;2023-04-09T09:43:41;21.02;;;14.02;;
32876;SDS011;19226;51.600;8.034;2023-04-09T09:46:25;21.70;;;14.63;;
32876;SDS011;19226;51.600;8.034;2023-04-09T09:49:11;19.90;;;14.05;;
32876;SDS011;19226;51.600;8.034;2023-04-09T09:51:56;23.83;;;15.27;;
32876;SDS011;19226;51.600;8.034;2023-04-09T09:54:46;22.73;;;14.27;;
32876;SDS011;19226;51.600;8.034;2023-04-09T09:57:34;19.52;;;13.55;;
32876;SDS011;19226;51.600;8.034;2023-04-09T10:00:24;16.52;;;12.00;;
32876;SDS011;19226;51.600;8.034;2023-04-09T10:03:18;17.33;;;11.57;;
32876;SDS011;19226;51.600;8.034;2023-04-09T10:06:06;13.82;;;9.88;;
32876;SDS011;19226;51.600;8.034;2023-04-09T10:08:51;17.50;;;11.23;;
32876;SDS011;19226;51.600;8.034;2023-04-09T10:11:40;13.82;;;10.25;;
32876;SDS011;19226;51.600;8.034;2023-04-09T10:14:26;13.88;;;9.75;;
32876;SDS011;19226;51.600;8.034;2023-04-09T10:17:11;12.02;;;9.23;;
32876;SDS011;19226;51.600;8.034;2023-04-09T10:20:02;10.32;;;8.02;;
32876;SDS011;19226;51.600;8.034;2023-04-09T10:23:01;13.68;;;7.82;;
32876;SDS011;19226;51.600;8.034;2023-04-09T10:28:33;11.90;;;8.30;;
32876;SDS011;19226;51.600;8.034;2023-04-09T10:31:20;10.15;;;7.88;;
32876;SDS011;19226;51.600;8.034;2023-04-09T10:34:05;9.82;;;7.97;;
32876;SDS011;19226;51.600;8.034;2023-04-09T10:36:57;10.48;;;7.72;;
32876;SDS011;19226;51.600;8.034;2023-04-09T10:39:45;10.20;;;7.97;;
32876;SDS011;19226;51.600;8.034;2023-04-09T10:42:31;9.50;;;7.05;;
32876;SDS011;19226;51.600;8.034;2023-04-09T10:45:21;8.95;;;7.80;;
32876;SDS011;19226;51.600;8.034;2023-04-09T10:48:09;9.23;;;7.38;;
32876;SDS011;19226;51.600;8.034;2023-04-09T10:50:55;12.75;;;8.35;;
32876;SDS011;19226;51.600;8.034;2023-04-09T10:53:41;10.52;;;6.88;;
32876;SDS011;19226;51.600;8.034;2023-04-09T10:56:26;10.27;;;7.82;;
32876;SDS011;19226;51.600;8.034;2023-04-09T10:59:11;8.88;;;6.80;;
32876;SDS011;19226;51.600;8.034;2023-04-09T11:01:55;9.68;;;7.32;;
32876;SDS011;19226;51.600;8.034;2023-04-09T11:04:46;8.77;;;6.97;;
32876;SDS011;19226;51.600;8.034;2023-04-09T11:07:52;11.93;;;7.55;;
32876;SDS011;19226;51.600;8.034;2023-04-09T11:10:47;10.57;;;7.38;;
32876;SDS011;19226;51.600;8.034;2023-04-09T11:13:32;9.07;;;7.20;;
32876;SDS011;19226;51.600;8.034;2023-04-09T11:16:17;13.77;;;7.75;;
32876;SDS011;19226;51.600;8.034;2023-04-09T11:19:03;10.70;;;8.40;;
32876;SDS011;19226;51.600;8.034;2023-04-09T11:21:47;9.15;;;7.55;;
32876;SDS011;19226;51.600;8.034;2023-04-09T11:24:41;12.02;;;8.20;;
32876;SDS011;19226;51.600;8.034;2023-04-09T11:27:26;8.57;;;7.45;;
32876;SDS011;19226;51.600;8.034;2023-04-09T11:30:11;10.20;;;7.53;;
32876;SDS011;19226;51.600;8.034;2023-04-09T11:32:56;9.85;;;7.78;;
32876;SDS011;19226;51.600;8.034;2023-04-09T11:35:40;13.30;;;8.65;;
32876;SDS011;19226;51.600;8.034;2023-04-09T11:38:25;10.00;;;7.85;;
32876;SDS011;19226;51.600;8.034;2023-04-09T11:41:09;11.13;;;7.90;;
32876;SDS011;19226;51.600;8.034;2023-04-09T11:43:56;9.48;;;8.00;;
32876;SDS011;19226;51.600;8.034;2023-04-09T11:46:40;10.00;;;7.20;;
32876;SDS011;19226;51.600;8.034;2023-04-09T11:49:25;10.23;;;7.65;;
32876;SDS011;19226;51.600;8.034;2023-04-09T11:52:10;9.18;;;7.57;;
32876;SDS011;19226;51.600;8.034;2023-04-09T11:54:58;10.45;;;7.53;;
32876;SDS011;19226;51.600;8.034;2023-04-09T12:00:29;9.45;;;7.47;;
32876;SDS011;19226;51.600;8.034;2023-04-09T12:03:15;14.48;;;9.98;;
32876;SDS011;19226;51.600;8.034;2023-04-09T12:06:00;14.55;;;11.15;;
32876;SDS011;19226;51.600;8.034;2023-04-09T12:08:45;10.48;;;8.32;;
32876;SDS011;19226;51.600;8.034;2023-04-09T12:11:30;9.88;;;7.93;;
32876;SDS011;19226;51.600;8.034;2023-04-09T12:14:15;9.68;;;8.00;;
32876;SDS011;19226;51.600;8.034;2023-04-09T12:17:01;10.65;;;7.95;;
32876;SDS011;19226;51.600;8.034;2023-04-09T12:19:47;10.35;;;7.10;;
32876;SDS011;19226;51.600;8.034;2023-04-09T12:22:31;9.93;;;7.72;;
32876;SDS011;19226;51.600;8.034;2023-04-09T12:25:16;10.68;;;7.70;;
32876;SDS011;19226;51.600;8.034;2023-04-09T12:28:01;10.50;;;8.27;;
32876;SDS011;19226;51.600;8.034;2023-04-09T12:30:46;10.90;;;7.47;;
32876;SDS011;19226;51.600;8.034;2023-04-09T12:33:31;8.88;;;7.53;;
32876;SDS011;19226;51.600;8.034;2023-04-09T12:36:17;10.35;;;7.20;;
32876;SDS011;19226;51.600;8.034;2023-04-09T12:39:01;10.80;;;7.40;;
32876;SDS011;19226;51.600;8.034;2023-04-09T12:41:45;9.95;;;7.95;;
32876;SDS011;19226;51.600;8.034;2023-04-09T12:44:30;10.98;;;8.25;;
32876;SDS011;19226;51.600;8.034;2023-04-09T12:47:16;10.30;;;8.35;;
32876;SDS011;19226;51.600;8.034;2023-04-09T12:50:01;10.70;;;7.90;;
32876;SDS011;19226;51.600;8.034;2023-04-09T12:52:49;9.82;;;8.23;;
32876;SDS011;19226;51.600;8.034;2023-04-09T12:55:33;11.15;;;8.10;;
32876;SDS011;19226;51.600;8.034;2023-04-09T12:58:18;11.88;;;8.30;;
32876;SDS011;19226;51.600;8.034;2023-04-09T13:01:03;8.70;;;7.50;;
32876;SDS011;19226;51.600;8.034;2023-04-09T13:03:47;11.38;;;7.95;;
32876;SDS011;19226;51.600;8.034;2023-04-09T13:06:32;11.18;;;8.00;;
32876;SDS011;19226;51.600;8.034;2023-04-09T13:09:16;14.60;;;9.10;;
32876;SDS011;19226;51.600;8.034;2023-04-09T13:12:01;10.85;;;8.00;;
32876;SDS011;19226;51.600;8.034;2023-04-09T13:14:45;9.55;;;8.20;;
32876;SDS011;19226;51.600;8.034;2023-04-09T13:17:31;14.65;;;8.52;;
32876;SDS011;19226;51.600;8.034;2023-04-09T13:20:15;8.43;;;7.45;;
32876;SDS011;19226;51.600;8.034;2023-04-09T13:23:00;8.77;;;7.15;;
32876;SDS011;19226;51.600;8.034;2023-04-09T13:25:45;9.77;;;7.47;;
32876;SDS011;19226;51.600;8.034;2023-04-09T13:28:30;8.57;;;6.60;;
32876;SDS011;19226;51.600;8.034;2023-04-09T13:31:15;8.65;;;6.93;;
32876;SDS011;19226;51.600;8.034;2023-04-09T13:33:59;9.35;;;7.22;;
32876;SDS011;19226;51.600;8.034;2023-04-09T13:36:45;11.02;;;8.10;;
32876;SDS011;19226;51.600;8.034;2023-04-09T13:39:30;12.35;;;8.25;;
32876;SDS011;19226;51.600;8.034;2023-04-09T13:42:14;9.60;;;7.47;;
32876;SDS011;19226;51.600;8.034;2023-04-09T13:44:59;10.75;;;7.25;;
32876;SDS011;19226;51.600;8.034;2023-04-09T13:47:44;9.90;;;7.15;;
32876;SDS011;19226;51.600;8.034;2023-04-09T13:50:28;8.48;;;6.70;;
32876;SDS011;19226;51.600;8.034;2023-04-09T13:53:13;9.63;;;7.63;;
32876;SDS011;19226;51.600;8.034;2023-04-09T13:55:58;9.20;;;6.63;;
32876;SDS011;19226;51.600;8.034;2023-04-09T13:58:44;8.10;;;6.53;;
32876;SDS011;19226;51.600;8.034;2023-04-09T14:01:29;8.73;;;6.65;;
32876;SDS011;19226;51.600;8.034;2023-04-09T14:04:14;9.30;;;6.97;;
32876;SDS011;19226;51.600;8.034;2023-04-09T14:06:58;10.25;;;6.47;;
32876;SDS011;19226;51.600;8.034;2023-04-09T14:09:42;8.20;;;6.72;;
32876;SDS011;19226;51.600;8.034;2023-04-09T14:12:27;9.20;;;7.30;;
32876;SDS011;19226;51.600;8.034;2023-04-09T14:15:11;11.30;;;7.55;;
32876;SDS011;19226;51.600;8.034;2023-04-09T14:17:56;9.45;;;6.90;;
32876;SDS011;19226;51.600;8.034;2023-04-09T14:20:40;8.73;;;6.65;;
32876;SDS011;19226;51.600;8.034;2023-04-09T14:23:25;9.05;;;6.72;;
32876;SDS011;19226;51.600;8.034;2023-04-09T14:26:09;10.52;;;7.15;;
32876;SDS011;19226;51.600;8.034;2023-04-09T14:28:54;7.53;;;6.55;;
32876;SDS011;19226;51.600;8.034;2023-04-09T14:31:39;11.15;;;7.07;;
32876;SDS011;19226;51.600;8.034;2023-04-09T14:34:26;8.63;;;7.32;;
32876;SDS011;19226;51.600;8.034;2023-04-09T14:37:13;8.93;;;6.75;;
32876;SDS011;19226;51.600;8.034;2023-04-09T14:39:58;9.15;;;6.32;;
32876;SDS011;19226;51.600;8.034;2023-04-09T14:42:42;8.15;;;6.60;;
32876;SDS011;19226;51.600;8.034;2023-04-09T14:45:28;7.97;;;6.18;;
32876;SDS011;19226;51.600;8.034;2023-04-09T14:48:13;8.45;;;6.28;;
32876;SDS011;19226;51.600;8.034;2023-04-09T14:50:58;7.82;;;6.53;;
32876;SDS011;19226;51.600;8.034;2023-04-09T14:53:42;8.18;;;6.05;;
32876;SDS011;19226;51.600;8.034;2023-04-09T14:56:26;8.95;;;6.85;;
32876;SDS011;19226;51.600;8.034;2023-04-09T14:59:11;8.20;;;6.93;;
32876;SDS011;19226;51.600;8.034;2023-04-09T15:01:55;6.82;;;5.93;;
32876;SDS011;19226;51.600;8.034;2023-04-09T15:04:40;9.85;;;6.38;;
32876;SDS011;19226;51.600;8.034;2023-04-09T15:07:25;7.97;;;5.90;;
32876;SDS011;19226;51.600;8.034;2023-04-09T15:10:12;9.52;;;6.50;;
32876;SDS011;19226;51.600;8.034;2023-04-09T15:12:56;8.48;;;5.07;;
32876;SDS011;19226;51.600;8.034;2023-04-09T15:15:41;6.35;;;5.60;;
32876;SDS011;19226;51.600;8.034;2023-04-09T15:18:27;6.63;;;5.32;;
32876;SDS011;19226;51.600;8.034;2023-04-09T15:21:11;6.30;;;5.40;;
32876;SDS011;19226;51.600;8.034;2023-04-09T15:23:56;8.48;;;6.53;;
32876;SDS011;19226;51.600;8.034;2023-04-09T15:26:41;9.02;;;5.43;;
32876;SDS011;19226;51.600;8.034;2023-04-09T15:29:26;8.93;;;6.07;;
32876;SDS011;19226;51.600;8.034;2023-04-09T15:32:14;6.88;;;5.72;;
32876;SDS011;19226;51.600;8.034;2023-04-09T15:34:59;7.05;;;5.95;;
32876;SDS011;19226;51.600;8.034;2023-04-09T15:37:44;6.70;;;5.97;;
32876;SDS011;19226;51.600;8.034;2023-04-09T15:40:28;7.30;;;6.13;;
32876;SDS011;19226;51.600;8.034;2023-04-09T15:43:14;7.60;;;5.97;;
32876;SDS011;19226;51.600;8.034;2023-04-09T15:46:05;7.85;;;5.78;;
32876;SDS011;19226;51.600;8.034;2023-04-09T15:48:53;10.60;;;6.68;;
32876;SDS011;19226;51.600;8.034;2023-04-09T15:51:37;7.43;;;6.10;;
32876;SDS011;19226;51.600;8.034;2023-04-09T15:54:22;9.05;;;6.60;;
32876;SDS011;19226;51.600;8.034;2023-04-09T15:57:07;8.27;;;6.63;;
32876;SDS011;19226;51.600;8.034;2023-04-09T15:59:51;8.95;;;6.72;;
32876;SDS011;19226;51.600;8.034;2023-04-09T16:02:36;6.93;;;5.97;;
32876;SDS011;19226;51.600;8.034;2023-04-09T16:05:21;6.88;;;5.70;;
32876;SDS011;19226;51.600;8.034;2023-04-09T16:08:06;7.05;;;6.00;;
32876;SDS011;19226;51.600;8.034;2023-04-09T16:10:51;8.20;;;7.00;;
32876;SDS011;19226;51.600;8.034;2023-04-09T16:13:35;7.90;;;5.90;;
32876;SDS011;19226;51.600;8.034;2023-04-09T16:16:19;8.30;;;6.20;;
32876;SDS011;19226;51.600;8.034;2023-04-09T16:19:04;7.63;;;6.32;;
32876;SDS011;19226;51.600;8.034;2023-04-09T16:21:49;7.22;;;6.43;;
32876;SDS011;19226;51.600;8.034;2023-04-09T16:24:33;7.07;;;5.75;;
32876;SDS011;19226;51.600;8.034;2023-04-09T16:27:18;6.97;;;5.97;;
32876;SDS011;19226;51.600;8.034;2023-04-09T16:30:02;6.10;;;5.50;;
32876;SDS011;19226;51.600;8.034;2023-04-09T16:32:48;9.75;;;6.25;;
32876;SDS011;19226;51.600;8.034;2023-04-09T16:35:33;7.32;;;5.18;;
32876;SDS011;19226;51.600;8.034;2023-04-09T16:38:18;6.07;;;5.30;;
32876;SDS011;19226;51.600;8.034;2023-04-09T16:41:03;7.95;;;5.78;;
32876;SDS011;19226;51.600;8.034;2023-04-09T16:43:47;6.57;;;5.63;;
32876;SDS011;19226;51.600;8.034;2023-04-09T16:46:33;6.65;;;5.55;;
32876;SDS011;19226;51.600;8.034;2023-04-09T16:49:18;7.03;;;5.55;;